Terminal Aerodrome Forecast
Issued by NWS Tulsa, OK

Home | Current Version | Previous Version | Text Only | Print | Product List | Glossary On
Versions: 1 2 3 4 5 6 7 8 9 10 11 12 13
000
FTUS44 KTSA 301726
TAFFSM
TAF
KFSM 301726Z 3018/3118 12006KT P6SM VCSH BKN080
     FM302100 13004KT P6SM OVC050
      TEMPO 3021/3101 2SM +TSRA BKN025CB
     FM310100 06006KT P6SM OVC100
     FM311000 06003KT 4SM BR OVC050
     FM311500 06003KT P6SM OVC015=

USA.gov is the U.S. government's official web portal to all federal, state and local government web resources and services.